EDV5193 KMOB-KATL
Flight info
| Callsign | EDV5193 |
|---|---|
| Flight time | 0h 48m |
| Altitude | 25000 |
| Route | CATLN FRDDO HOBTT3 |
| Aircraft | CRJ9/M-SDFGIRWY/S |
Departure
| Time | 2026-05-03 22:33 |
|---|---|
| Airport | Mobile Regional Airport (KMOB) |
Arrival
| Time | 2026-05-03 23:21 |
|---|---|
| Airport | Hartsfield Jackson Atlanta International Airport (KATL) |
| Time | Latitude | Longitude | Altitude | Speed | Heading |
|---|---|---|---|---|---|
| 2026-05-03 22:17 | 30.68329 | -88.24516 | 223 ft | 0 kts | 270° |
| 2026-05-03 22:21 | 30.68333 | -88.24525 | 223 ft | 2 kts | 334° |
| 2026-05-03 22:22 | 30.68349 | -88.24507 | 223 ft | 6 kts | 72° |
| 2026-05-03 22:22 | 30.68365 | -88.24450 | 223 ft | 9 kts | 72° |
| 2026-05-03 22:22 | 30.68385 | -88.24377 | 223 ft | 10 kts | 72° |
| 2026-05-03 22:22 | 30.68400 | -88.24288 | 223 ft | 12 kts | 86° |
| 2026-05-03 22:23 | 30.68401 | -88.24184 | 224 ft | 14 kts | 89° |
| 2026-05-03 22:23 | 30.68379 | -88.24077 | 224 ft | 15 kts | 143° |
| 2026-05-03 22:23 | 30.68293 | -88.23998 | 224 ft | 16 kts | 141° |
| 2026-05-03 22:23 | 30.68276 | -88.23930 | 225 ft | 8 kts | 55° |
| 2026-05-03 22:24 | 30.68281 | -88.23923 | 225 ft | 0 kts | 55° |
| 2026-05-03 22:32 | 30.68296 | -88.23897 | 225 ft | 13 kts | 56° |
| 2026-05-03 22:32 | 30.68385 | -88.23855 | 223 ft | 16 kts | 328° |
| 2026-05-03 22:32 | 30.68552 | -88.24003 | 222 ft | 63 kts | 324° |
| 2026-05-03 22:32 | 30.69129 | -88.24479 | 219 ft | 137 kts | 323° |
| 2026-05-03 22:33 | 30.70009 | -88.25203 | 653 ft | 159 kts | 324° |
| 2026-05-03 22:33 | 30.70932 | -88.25988 | 1569 ft | 164 kts | 325° |
| 2026-05-03 22:33 | 30.71856 | -88.26780 | 2474 ft | 174 kts | 326° |
| 2026-05-03 22:33 | 30.72953 | -88.27666 | 2840 ft | 208 kts | 327° |
| 2026-05-03 22:34 | 30.74260 | -88.28605 | 3417 ft | 231 kts | 341° |
| 2026-05-03 22:34 | 30.75895 | -88.28726 | 4083 ft | 247 kts | 13° |
| 2026-05-03 22:34 | 30.77435 | -88.27796 | 4954 ft | 255 kts | 39° |
| 2026-05-03 22:34 | 30.78670 | -88.26294 | 5893 ft | 261 kts | 46° |
| 2026-05-03 22:35 | 30.79876 | -88.24690 | 6807 ft | 265 kts | 47° |
| 2026-05-03 22:35 | 30.81077 | -88.23011 | 7604 ft | 273 kts | 47° |
| 2026-05-03 22:35 | 30.82288 | -88.21270 | 8443 ft | 279 kts | 48° |
| 2026-05-03 22:35 | 30.83508 | -88.19469 | 9233 ft | 287 kts | 48° |
| 2026-05-03 22:36 | 30.84752 | -88.17619 | 10062 ft | 293 kts | 48° |
| 2026-05-03 22:36 | 30.86028 | -88.15707 | 10494 ft | 313 kts | 49° |
| 2026-05-03 22:36 | 30.87426 | -88.13614 | 10913 ft | 332 kts | 48° |
| 2026-05-03 22:36 | 30.88861 | -88.11467 | 11371 ft | 348 kts | 49° |
| 2026-05-03 22:37 | 30.90377 | -88.09203 | 11975 ft | 358 kts | 48° |
| 2026-05-03 22:37 | 30.91922 | -88.06885 | 12682 ft | 365 kts | 49° |
| 2026-05-03 22:37 | 30.93490 | -88.04524 | 13392 ft | 372 kts | 48° |
| 2026-05-03 22:37 | 30.95085 | -88.02114 | 14093 ft | 379 kts | 48° |
| 2026-05-03 22:38 | 30.96707 | -87.99657 | 14730 ft | 386 kts | 48° |
| 2026-05-03 22:38 | 30.98353 | -87.97160 | 15366 ft | 392 kts | 48° |
| 2026-05-03 22:38 | 31.00024 | -87.94623 | 15992 ft | 397 kts | 48° |
| 2026-05-03 22:38 | 31.01720 | -87.92040 | 16600 ft | 403 kts | 48° |
| 2026-05-03 22:39 | 31.03434 | -87.89426 | 17199 ft | 409 kts | 48° |
| 2026-05-03 22:39 | 31.05319 | -87.86952 | 17780 ft | 408 kts | 37° |
| 2026-05-03 22:39 | 31.07478 | -87.84789 | 18372 ft | 411 kts | 34° |
| 2026-05-03 22:39 | 31.09652 | -87.82590 | 18913 ft | 417 kts | 37° |
| 2026-05-03 22:40 | 31.11771 | -87.80239 | 19427 ft | 423 kts | 39° |
| 2026-05-03 22:40 | 31.13855 | -87.77786 | 19945 ft | 428 kts | 40° |
| 2026-05-03 22:40 | 31.15964 | -87.75304 | 20447 ft | 432 kts | 39° |
| 2026-05-03 22:40 | 31.18075 | -87.72851 | 20932 ft | 435 kts | 39° |
| 2026-05-03 22:41 | 31.20240 | -87.70347 | 21409 ft | 440 kts | 39° |
| 2026-05-03 22:41 | 31.22421 | -87.67814 | 21866 ft | 444 kts | 39° |
| 2026-05-03 22:41 | 31.24621 | -87.65255 | 22336 ft | 448 kts | 39° |
| 2026-05-03 22:41 | 31.26842 | -87.62675 | 22785 ft | 452 kts | 39° |
| 2026-05-03 22:42 | 31.29081 | -87.60070 | 23172 ft | 457 kts | 39° |
| 2026-05-03 22:42 | 31.31353 | -87.57436 | 23584 ft | 461 kts | 39° |
| 2026-05-03 22:42 | 31.33647 | -87.54789 | 23965 ft | 464 kts | 38° |
| 2026-05-03 22:42 | 31.36003 | -87.52183 | 24336 ft | 467 kts | 37° |
| 2026-05-03 22:43 | 31.38380 | -87.49585 | 24670 ft | 471 kts | 37° |
| 2026-05-03 22:43 | 31.40781 | -87.46942 | 24925 ft | 477 kts | 37° |
| 2026-05-03 22:43 | 31.43218 | -87.44253 | 25043 ft | 487 kts | 37° |
| 2026-05-03 22:43 | 31.45709 | -87.41500 | 25102 ft | 497 kts | 38° |
| 2026-05-03 22:44 | 31.48258 | -87.38685 | 25130 ft | 508 kts | 38° |
| 2026-05-03 22:44 | 31.50848 | -87.35815 | 25143 ft | 508 kts | 38° |
| 2026-05-03 22:44 | 31.53345 | -87.33050 | 25139 ft | 490 kts | 38° |
| 2026-05-03 22:44 | 31.55775 | -87.30365 | 25122 ft | 469 kts | 37° |
| 2026-05-03 22:45 | 31.58113 | -87.27784 | 25109 ft | 458 kts | 37° |
| 2026-05-03 22:45 | 31.60402 | -87.25249 | 25103 ft | 450 kts | 37° |
| 2026-05-03 22:45 | 31.62679 | -87.22727 | 25101 ft | 449 kts | 37° |
| 2026-05-03 22:45 | 31.64946 | -87.20210 | 25108 ft | 448 kts | 37° |
| 2026-05-03 22:46 | 31.67209 | -87.17695 | 25109 ft | 448 kts | 37° |
| 2026-05-03 22:46 | 31.69476 | -87.15176 | 25105 ft | 449 kts | 37° |
| 2026-05-03 22:46 | 31.71750 | -87.12649 | 25103 ft | 451 kts | 37° |
| 2026-05-03 22:46 | 31.74033 | -87.10104 | 25098 ft | 452 kts | 37° |
| 2026-05-03 22:47 | 31.76317 | -87.07557 | 25092 ft | 454 kts | 37° |
| 2026-05-03 22:47 | 31.78618 | -87.04994 | 25085 ft | 456 kts | 37° |
| 2026-05-03 22:47 | 31.80927 | -87.02419 | 25076 ft | 458 kts | 37° |
| 2026-05-03 22:47 | 31.83241 | -86.99833 | 25076 ft | 459 kts | 37° |
| 2026-05-03 22:48 | 31.85557 | -86.97244 | 25070 ft | 459 kts | 37° |
| 2026-05-03 22:48 | 31.87876 | -86.94651 | 25073 ft | 459 kts | 37° |
| 2026-05-03 22:48 | 31.90191 | -86.92070 | 25074 ft | 458 kts | 37° |
| 2026-05-03 22:48 | 31.92506 | -86.89478 | 25074 ft | 458 kts | 37° |
| 2026-05-03 22:49 | 31.94813 | -86.86888 | 25074 ft | 458 kts | 37° |
| 2026-05-03 22:49 | 31.97090 | -86.84336 | 25075 ft | 458 kts | 37° |
| 2026-05-03 22:49 | 31.99397 | -86.81750 | 25079 ft | 457 kts | 37° |
| 2026-05-03 22:49 | 32.01699 | -86.79164 | 25077 ft | 457 kts | 37° |
| 2026-05-03 22:50 | 32.04001 | -86.76574 | 25074 ft | 457 kts | 37° |
| 2026-05-03 22:50 | 32.06302 | -86.73989 | 25073 ft | 457 kts | 37° |
| 2026-05-03 22:50 | 32.08608 | -86.71394 | 25071 ft | 457 kts | 37° |
| 2026-05-03 22:50 | 32.10913 | -86.68799 | 25067 ft | 457 kts | 37° |
| 2026-05-03 22:51 | 32.12437 | -86.67079 | 25062 ft | 457 kts | 37° |
| 2026-05-03 22:51 | 32.14738 | -86.64486 | 25080 ft | 457 kts | 37° |
| 2026-05-03 22:51 | 32.17041 | -86.61891 | 25096 ft | 457 kts | 37° |
| 2026-05-03 22:51 | 32.19342 | -86.59292 | 25110 ft | 458 kts | 37° |
| 2026-05-03 22:52 | 32.21640 | -86.56695 | 25124 ft | 458 kts | 37° |
| 2026-05-03 22:52 | 32.23942 | -86.54092 | 25133 ft | 458 kts | 37° |
| 2026-05-03 22:52 | 32.26244 | -86.51486 | 25144 ft | 458 kts | 37° |
| 2026-05-03 22:52 | 32.28546 | -86.48879 | 25142 ft | 458 kts | 37° |
| 2026-05-03 22:53 | 32.30817 | -86.46309 | 25139 ft | 446 kts | 36° |
| 2026-05-03 22:53 | 32.32963 | -86.43707 | 25123 ft | 439 kts | 43° |
| 2026-05-03 22:53 | 32.34792 | -86.40854 | 25117 ft | 434 kts | 51° |
| 2026-05-03 22:53 | 32.36431 | -86.37859 | 25084 ft | 434 kts | 53° |
| 2026-05-03 22:54 | 32.38020 | -86.34883 | 25088 ft | 432 kts | 52° |
| 2026-05-03 22:54 | 32.39657 | -86.31913 | 25088 ft | 431 kts | 51° |
| 2026-05-03 22:54 | 32.41347 | -86.28991 | 25096 ft | 429 kts | 49° |
| 2026-05-03 22:54 | 32.43053 | -86.26105 | 25096 ft | 428 kts | 50° |
| 2026-05-03 22:55 | 32.44758 | -86.23207 | 25104 ft | 427 kts | 50° |
| 2026-05-03 22:55 | 32.46453 | -86.20315 | 25108 ft | 427 kts | 50° |
| 2026-05-03 22:55 | 32.48123 | -86.17411 | 25111 ft | 427 kts | 50° |
| 2026-05-03 22:55 | 32.49798 | -86.14510 | 25121 ft | 426 kts | 50° |
| 2026-05-03 22:56 | 32.51481 | -86.11603 | 25123 ft | 433 kts | 50° |
| 2026-05-03 22:56 | 32.53190 | -86.08652 | 25126 ft | 434 kts | 50° |
| 2026-05-03 22:56 | 32.54894 | -86.05695 | 25125 ft | 434 kts | 50° |
| 2026-05-03 22:56 | 32.56595 | -86.02731 | 25128 ft | 435 kts | 50° |
| 2026-05-03 22:57 | 32.58304 | -85.99762 | 25133 ft | 436 kts | 50° |
| 2026-05-03 22:57 | 32.59994 | -85.96771 | 25135 ft | 437 kts | 51° |
| 2026-05-03 22:57 | 32.61682 | -85.93766 | 25134 ft | 438 kts | 51° |
| 2026-05-03 22:57 | 32.63387 | -85.90763 | 25134 ft | 439 kts | 50° |
| 2026-05-03 22:58 | 32.65114 | -85.87787 | 25141 ft | 439 kts | 50° |
| 2026-05-03 22:58 | 32.66848 | -85.84774 | 25139 ft | 441 kts | 50° |
| 2026-05-03 22:58 | 32.68548 | -85.81801 | 25138 ft | 442 kts | 50° |
| 2026-05-03 22:58 | 32.70278 | -85.78769 | 25141 ft | 442 kts | 50° |
| 2026-05-03 22:59 | 32.72007 | -85.75743 | 25135 ft | 443 kts | 50° |
| 2026-05-03 22:59 | 32.73744 | -85.72710 | 25135 ft | 444 kts | 50° |
| 2026-05-03 22:59 | 32.75482 | -85.69670 | 25140 ft | 445 kts | 50° |
| 2026-05-03 22:59 | 32.77220 | -85.66623 | 25138 ft | 446 kts | 50° |
| 2026-05-03 23:00 | 32.78959 | -85.63568 | 25141 ft | 446 kts | 50° |
| 2026-05-03 23:00 | 32.80706 | -85.60507 | 25138 ft | 447 kts | 50° |
| 2026-05-03 23:00 | 32.82454 | -85.57439 | 25140 ft | 448 kts | 51° |
| 2026-05-03 23:00 | 32.84201 | -85.54366 | 25137 ft | 449 kts | 51° |
| 2026-05-03 23:01 | 32.85931 | -85.51320 | 25140 ft | 449 kts | 50° |
| 2026-05-03 23:01 | 32.87708 | -85.48200 | 25131 ft | 450 kts | 50° |
| 2026-05-03 23:01 | 32.89466 | -85.45113 | 24905 ft | 453 kts | 51° |
| 2026-05-03 23:01 | 32.91203 | -85.42044 | 24450 ft | 453 kts | 51° |
| 2026-05-03 23:02 | 32.92983 | -85.38887 | 23930 ft | 454 kts | 51° |
| 2026-05-03 23:02 | 32.94727 | -85.35808 | 23307 ft | 456 kts | 51° |
| 2026-05-03 23:02 | 32.96499 | -85.32671 | 22674 ft | 457 kts | 51° |
| 2026-05-03 23:02 | 32.98271 | -85.29526 | 22039 ft | 457 kts | 51° |
| 2026-05-03 23:03 | 33.00041 | -85.26383 | 21416 ft | 456 kts | 51° |
| 2026-05-03 23:03 | 33.01812 | -85.23250 | 20809 ft | 455 kts | 50° |
| 2026-05-03 23:03 | 33.03724 | -85.20285 | 20207 ft | 448 kts | 42° |
| 2026-05-03 23:03 | 33.05842 | -85.17594 | 19606 ft | 443 kts | 38° |
| 2026-05-03 23:04 | 33.08006 | -85.14999 | 19019 ft | 441 kts | 38° |
| 2026-05-03 23:04 | 33.10137 | -85.12369 | 18419 ft | 439 kts | 40° |
| 2026-05-03 23:04 | 33.12204 | -85.09697 | 17741 ft | 437 kts | 41° |
| 2026-05-03 23:04 | 33.14236 | -85.07031 | 17078 ft | 433 kts | 41° |
| 2026-05-03 23:05 | 33.16272 | -85.04394 | 16414 ft | 428 kts | 41° |
| 2026-05-03 23:05 | 33.18272 | -85.01789 | 15805 ft | 422 kts | 42° |
| 2026-05-03 23:05 | 33.20223 | -84.99213 | 15198 ft | 416 kts | 43° |
| 2026-05-03 23:05 | 33.22136 | -84.96665 | 14599 ft | 409 kts | 43° |
| 2026-05-03 23:06 | 33.23996 | -84.94193 | 14028 ft | 402 kts | 43° |
| 2026-05-03 23:06 | 33.25864 | -84.91738 | 13375 ft | 395 kts | 43° |
| 2026-05-03 23:06 | 33.27707 | -84.89336 | 12732 ft | 388 kts | 43° |
| 2026-05-03 23:06 | 33.29507 | -84.86995 | 12389 ft | 376 kts | 43° |
| 2026-05-03 23:07 | 33.31238 | -84.84738 | 12228 ft | 360 kts | 43° |
| 2026-05-03 23:07 | 33.32922 | -84.82625 | 12134 ft | 342 kts | 41° |
| 2026-05-03 23:07 | 33.34573 | -84.80664 | 12051 ft | 327 kts | 39° |
| 2026-05-03 23:07 | 33.36179 | -84.78817 | 12012 ft | 313 kts | 39° |
| 2026-05-03 23:08 | 33.37710 | -84.77043 | 11995 ft | 301 kts | 39° |
| 2026-05-03 23:08 | 33.39185 | -84.75345 | 12004 ft | 286 kts | 39° |
| 2026-05-03 23:08 | 33.40580 | -84.73726 | 12009 ft | 273 kts | 39° |
| 2026-05-03 23:08 | 33.41924 | -84.72164 | 12004 ft | 269 kts | 39° |
| 2026-05-03 23:09 | 33.43244 | -84.70627 | 11994 ft | 267 kts | 39° |
| 2026-05-03 23:09 | 33.44579 | -84.69072 | 11998 ft | 268 kts | 39° |
| 2026-05-03 23:09 | 33.45921 | -84.67506 | 12000 ft | 269 kts | 39° |
| 2026-05-03 23:09 | 33.47266 | -84.65936 | 12006 ft | 270 kts | 39° |
| 2026-05-03 23:10 | 33.48617 | -84.64358 | 12005 ft | 271 kts | 39° |
| 2026-05-03 23:10 | 33.49969 | -84.62782 | 12013 ft | 271 kts | 39° |
| 2026-05-03 23:10 | 33.51322 | -84.61205 | 12008 ft | 271 kts | 39° |
| 2026-05-03 23:10 | 33.52667 | -84.59628 | 12005 ft | 270 kts | 39° |
| 2026-05-03 23:11 | 33.53744 | -84.57786 | 11984 ft | 276 kts | 69° |
| 2026-05-03 23:11 | 33.53990 | -84.55503 | 11813 ft | 280 kts | 91° |
| 2026-05-03 23:11 | 33.53865 | -84.53187 | 11574 ft | 277 kts | 95° |
| 2026-05-03 23:11 | 33.53718 | -84.50921 | 11304 ft | 275 kts | 93° |
| 2026-05-03 23:12 | 33.53636 | -84.48644 | 11039 ft | 273 kts | 90° |
| 2026-05-03 23:12 | 33.53630 | -84.46382 | 10734 ft | 270 kts | 88° |
| 2026-05-03 23:12 | 33.53652 | -84.44143 | 10405 ft | 267 kts | 89° |
| 2026-05-03 23:12 | 33.53661 | -84.41926 | 10019 ft | 264 kts | 89° |
| 2026-05-03 23:13 | 33.53664 | -84.39739 | 9574 ft | 261 kts | 89° |
| 2026-05-03 23:13 | 33.53666 | -84.37567 | 9148 ft | 258 kts | 88° |
| 2026-05-03 23:13 | 33.53668 | -84.35421 | 8701 ft | 256 kts | 88° |
| 2026-05-03 23:13 | 33.53669 | -84.33294 | 8293 ft | 252 kts | 88° |
| 2026-05-03 23:14 | 33.53668 | -84.31204 | 7876 ft | 250 kts | 87° |
| 2026-05-03 23:14 | 33.53670 | -84.29134 | 7448 ft | 247 kts | 86° |
| 2026-05-03 23:14 | 33.53674 | -84.27089 | 7064 ft | 243 kts | 86° |
| 2026-05-03 23:14 | 33.53679 | -84.25067 | 6613 ft | 241 kts | 86° |
| 2026-05-03 23:15 | 33.53679 | -84.23075 | 6170 ft | 238 kts | 86° |
| 2026-05-03 23:15 | 33.53684 | -84.21094 | 5673 ft | 237 kts | 86° |
| 2026-05-03 23:15 | 33.53854 | -84.19160 | 5097 ft | 230 kts | 62° |
| 2026-05-03 23:15 | 33.54843 | -84.17820 | 4744 ft | 206 kts | 21° |
| 2026-05-03 23:16 | 33.56128 | -84.17596 | 4545 ft | 181 kts | 355° |
| 2026-05-03 23:16 | 33.57381 | -84.17631 | 4292 ft | 180 kts | 356° |
| 2026-05-03 23:16 | 33.58631 | -84.17746 | 4024 ft | 180 kts | 343° |
| 2026-05-03 23:16 | 33.59549 | -84.18669 | 3758 ft | 177 kts | 298° |
| 2026-05-03 23:17 | 33.60050 | -84.19999 | 3570 ft | 173 kts | 296° |
| 2026-05-03 23:17 | 33.60519 | -84.21343 | 3353 ft | 175 kts | 294° |
| 2026-05-03 23:17 | 33.60965 | -84.22692 | 3166 ft | 172 kts | 294° |
| 2026-05-03 23:17 | 33.61392 | -84.24065 | 3124 ft | 183 kts | 292° |
| 2026-05-03 23:18 | 33.61797 | -84.25554 | 2955 ft | 189 kts | 286° |
| 2026-05-03 23:18 | 33.62045 | -84.27060 | 2778 ft | 180 kts | 283° |
| 2026-05-03 23:18 | 33.62279 | -84.28529 | 2869 ft | 176 kts | 284° |
| 2026-05-03 23:18 | 33.62548 | -84.29931 | 2897 ft | 176 kts | 286° |
| 2026-05-03 23:19 | 33.62821 | -84.31381 | 2766 ft | 179 kts | 284° |
| 2026-05-03 23:19 | 33.63024 | -84.32792 | 2653 ft | 161 kts | 282° |
| 2026-05-03 23:19 | 33.63115 | -84.34060 | 2331 ft | 152 kts | 277° |
| 2026-05-03 23:19 | 33.63148 | -84.35297 | 2201 ft | 147 kts | 278° |
| 2026-05-03 23:20 | 33.63184 | -84.36513 | 2030 ft | 141 kts | 278° |
| 2026-05-03 23:20 | 33.63197 | -84.37693 | 1787 ft | 145 kts | 273° |
| 2026-05-03 23:20 | 33.63170 | -84.38891 | 1544 ft | 144 kts | 271° |
| 2026-05-03 23:20 | 33.63180 | -84.40052 | 1342 ft | 136 kts | 270° |
| 2026-05-03 23:21 | 33.63185 | -84.41236 | 1133 ft | 145 kts | 271° |
| 2026-05-03 23:21 | 33.63182 | -84.42411 | 1008 ft | 127 kts | 270° |
| 2026-05-03 23:21 | 33.63184 | -84.43270 | 1016 ft | 81 kts | 270° |
| 2026-05-03 23:21 | 33.63238 | -84.43654 | 1019 ft | 27 kts | 296° |
| 2026-05-03 23:22 | 33.63357 | -84.43990 | 1018 ft | 21 kts | 271° |